createdAt,value
2019-04-16T00:00:32.560Z,8.80
2019-04-16T00:03:00.785Z,9.83
2019-04-16T00:05:30.663Z,10.23
2019-04-16T00:08:26.474Z,9.15
2019-04-16T00:10:52.875Z,9.15
2019-04-16T00:13:41.332Z,9.25
2019-04-16T00:16:12.966Z,9.75
2019-04-16T00:18:40.504Z,9.70
2019-04-16T00:21:26.972Z,10.55
2019-04-16T00:23:59.834Z,9.65
2019-04-16T00:26:28.036Z,9.95
2019-04-16T00:28:56.580Z,8.75
2019-04-16T00:31:24.864Z,10.40
2019-04-16T00:33:53.103Z,10.65
2019-04-16T00:36:21.318Z,9.70
2019-04-16T00:38:53.868Z,10.00
2019-04-16T00:41:19.479Z,9.38
2019-04-16T00:43:47.703Z,8.90
2019-04-16T00:46:15.901Z,9.35
2019-04-16T00:48:44.154Z,8.55
2019-04-16T00:51:12.387Z,9.65
2019-04-16T00:53:40.648Z,8.95
2019-04-16T00:56:09.867Z,9.70
2019-04-16T00:58:38.192Z,9.60
2019-04-16T01:01:06.572Z,10.30
2019-04-16T01:03:34.759Z,9.85
2019-04-16T01:06:07.000Z,8.70
2019-04-16T01:08:32.867Z,9.33
2019-04-16T01:11:01.082Z,9.68
2019-04-16T01:13:29.288Z,9.25
2019-04-16T01:15:57.543Z,9.83
2019-04-16T01:18:25.789Z,10.98
2019-04-16T01:20:54.025Z,10.05
2019-04-16T01:23:22.238Z,9.85
2019-04-16T01:25:50.484Z,10.28
2019-04-16T01:28:36.485Z,8.30
2019-04-16T01:31:09.395Z,9.55
2019-04-16T01:33:47.759Z,10.20
2019-04-16T01:36:23.760Z,10.10
2019-04-16T01:39:07.512Z,11.22
2019-04-16T01:41:25.108Z,9.78
2019-04-16T01:43:54.300Z,10.10
2019-04-16T01:46:23.325Z,9.98
2019-04-16T01:48:51.543Z,9.03
2019-04-16T01:51:19.784Z,10.20
2019-04-16T01:53:49.502Z,9.85
2019-04-16T01:56:17.957Z,10.95
2019-04-16T01:58:46.188Z,9.85
2019-04-16T02:01:14.425Z,10.35
2019-04-16T02:03:42.651Z,10.50
2019-04-16T02:06:10.879Z,10.18
2019-04-16T02:08:39.094Z,10.35
2019-04-16T02:11:10.668Z,9.95
2019-04-16T02:13:37.282Z,9.20
2019-04-16T02:16:05.536Z,10.50
2019-04-16T02:18:33.757Z,10.63
2019-04-16T02:21:01.996Z,9.60
2019-04-16T02:23:30.216Z,10.28
2019-04-16T02:25:58.457Z,9.48
2019-04-16T02:28:28.267Z,10.50
2019-04-16T02:30:56.665Z,10.60
2019-04-16T02:33:24.927Z,11.48
2019-04-16T02:35:53.161Z,10.48
2019-04-16T02:38:21.381Z,10.95
2019-04-16T02:40:52.996Z,10.45
2019-04-16T02:43:19.592Z,11.15
2019-04-16T02:45:47.786Z,11.00
2019-04-16T02:48:17.343Z,11.08
2019-04-16T02:51:07.411Z,10.18
2019-04-16T02:53:42.921Z,10.80
2019-04-16T02:56:19.359Z,9.85
2019-04-16T02:58:54.696Z,11.53
2019-04-16T03:01:30.322Z,9.10
2019-04-16T03:04:00.172Z,10.50
2019-04-16T03:06:31.988Z,9.93
2019-04-16T03:08:59.873Z,9.38
2019-04-16T03:11:28.079Z,9.53
2019-04-16T03:13:59.220Z,8.55
2019-04-16T03:16:27.875Z,10.98
2019-04-16T03:19:00.457Z,9.88
2019-04-16T03:21:28.676Z,10.72
2019-04-16T03:23:56.891Z,10.28
2019-04-16T03:26:25.094Z,9.20
2019-04-16T03:28:55.709Z,10.20
2019-04-16T03:31:23.847Z,10.28
2019-04-16T03:33:52.162Z,10.80
2019-04-16T03:36:20.445Z,10.90
2019-04-16T03:38:48.664Z,10.05
2019-04-16T03:41:16.874Z,9.93
2019-04-16T03:43:45.087Z,9.30
2019-04-16T03:46:14.180Z,10.60
2019-04-16T03:48:42.515Z,11.45
2019-04-16T03:51:10.759Z,10.80
2019-04-16T03:53:38.967Z,10.48
2019-04-16T03:56:07.196Z,9.15
2019-04-16T03:58:38.152Z,9.23
2019-04-16T04:01:05.347Z,9.23
2019-04-16T04:03:33.569Z,10.78
2019-04-16T04:06:03.583Z,8.75
2019-04-16T04:08:31.734Z,10.40
2019-04-16T04:10:59.932Z,10.05
2019-04-16T04:13:28.174Z,10.32
2019-04-16T04:15:58.608Z,9.53
2019-04-16T04:18:26.546Z,9.33
2019-04-16T04:20:54.763Z,10.43
2019-04-16T04:23:25.475Z,11.08
2019-04-16T04:25:52.924Z,11.55
2019-04-16T04:28:21.125Z,10.00
2019-04-16T04:30:49.351Z,9.43
2019-04-16T04:33:41.354Z,11.22
2019-04-16T04:36:10.941Z,10.38
2019-04-16T04:38:39.286Z,10.00
2019-04-16T04:41:07.870Z,9.98
2019-04-16T04:43:36.346Z,9.43
2019-04-16T04:46:04.582Z,9.25
2019-04-16T04:48:32.806Z,9.73
2019-04-16T04:51:06.715Z,11.88
2019-04-16T04:53:30.978Z,10.85
2019-04-16T04:55:59.208Z,9.95
2019-04-16T04:58:27.416Z,11.33
2019-04-16T05:00:55.643Z,10.38
2019-04-16T05:03:31.401Z,9.95
2019-04-16T05:06:04.215Z,10.80
2019-04-16T05:08:32.445Z,11.30
2019-04-16T05:11:02.880Z,11.85
2019-04-16T05:13:30.601Z,10.35
2019-04-16T05:16:01.903Z,11.73
2019-04-16T05:18:28.788Z,10.85
2019-04-16T05:20:57.030Z,12.33
2019-04-16T05:23:26.148Z,10.78
2019-04-16T05:25:54.498Z,10.00
2019-04-16T05:28:22.687Z,11.22
2019-04-16T05:30:52.305Z,11.03
2019-04-16T05:33:20.881Z,11.18
2019-04-16T05:35:49.108Z,10.95
2019-04-16T05:38:17.310Z,10.85
2019-04-16T05:40:45.534Z,11.45
2019-04-16T05:43:13.747Z,10.03
2019-04-16T05:45:42.836Z,10.40
2019-04-16T05:48:11.181Z,11.12
2019-04-16T05:50:39.634Z,11.28
2019-04-16T05:53:08.284Z,11.33
2019-04-16T05:55:39.114Z,11.03
2019-04-16T05:58:07.340Z,11.85
2019-04-16T06:00:38.662Z,11.15
2019-04-16T06:03:07.141Z,11.03
2019-04-16T06:05:35.354Z,10.15
2019-04-16T06:08:10.730Z,10.03
2019-04-16T06:10:38.996Z,12.20
2019-04-16T06:13:24.189Z,10.65
2019-04-16T06:16:03.379Z,11.43
2019-04-16T06:19:00.224Z,10.58
2019-04-16T06:21:30.118Z,10.48
2019-04-16T06:24:16.364Z,12.55
2019-04-16T06:26:58.421Z,12.18
2019-04-16T06:29:46.926Z,10.43
2019-04-16T06:32:31.951Z,11.43
2019-04-16T06:35:01.805Z,11.63
2019-04-16T06:37:45.701Z,11.95
2019-04-16T06:40:32.605Z,11.88
2019-04-16T06:43:02.944Z,11.25
2019-04-16T06:45:36.660Z,11.43
2019-04-16T06:48:04.373Z,11.25
2019-04-16T06:50:40.549Z,12.05
2019-04-16T06:53:25.088Z,11.45
2019-04-16T06:55:57.951Z,11.15
2019-04-16T06:58:30.502Z,11.93
2019-04-16T07:01:06.006Z,11.88
2019-04-16T07:06:24.902Z,11.10
2019-04-16T07:09:06.986Z,12.00
2019-04-16T07:11:38.496Z,11.97
2019-04-16T07:14:06.737Z,9.80
2019-04-16T07:16:34.957Z,11.08
2019-04-16T07:19:03.173Z,11.68
2019-04-16T07:21:31.393Z,10.53
2019-04-16T07:23:59.615Z,11.53
2019-04-16T07:26:27.866Z,11.10
2019-04-16T07:29:13.133Z,10.72
2019-04-16T07:32:01.525Z,9.65
2019-04-16T07:34:41.087Z,11.88
2019-04-16T07:37:10.927Z,10.90
2019-04-16T07:39:56.865Z,10.38
2019-04-16T07:42:51.853Z,11.22
2019-04-16T07:45:20.626Z,11.08
2019-04-16T07:47:56.356Z,11.90
2019-04-16T07:50:41.231Z,11.45
2019-04-16T07:56:06.968Z,11.93
2019-04-16T08:01:03.810Z,12.23
2019-04-16T08:03:32.088Z,11.68
2019-04-16T08:06:00.517Z,12.35
2019-04-16T08:08:28.744Z,11.63
2019-04-16T08:10:57.070Z,12.00
2019-04-16T08:13:26.835Z,13.22
2019-04-16T08:15:57.021Z,11.90
2019-04-16T08:18:50.620Z,12.15
2019-04-16T08:21:22.350Z,12.60
2019-04-16T08:23:52.904Z,11.88
2019-04-16T08:26:20.715Z,11.93
2019-04-16T08:28:48.884Z,12.18
2019-04-16T08:31:18.756Z,11.05
2019-04-16T08:33:46.960Z,13.10
2019-04-16T08:36:15.212Z,13.45
2019-04-16T08:38:43.418Z,12.35
2019-04-16T08:41:13.123Z,13.20
2019-04-16T08:43:41.539Z,13.13
2019-04-16T08:46:11.387Z,12.60
2019-04-16T08:48:39.714Z,13.65
2019-04-16T08:51:07.929Z,12.50
2019-04-16T08:53:36.176Z,13.70
2019-04-16T08:56:18.113Z,13.00
2019-04-16T08:58:40.710Z,12.33
2019-04-16T09:01:10.576Z,13.03
2019-04-16T09:03:41.805Z,13.58
2019-04-16T09:06:13.006Z,14.00
2019-04-16T09:08:52.875Z,13.30
2019-04-16T09:11:24.076Z,13.80
2019-04-16T09:14:05.468Z,12.60
2019-04-16T09:16:47.476Z,13.83
2019-04-16T09:19:17.356Z,14.35
2019-04-16T09:21:45.565Z,14.78
2019-04-16T09:24:27.210Z,12.98
2019-04-16T09:27:13.471Z,15.08
2019-04-16T09:29:59.397Z,14.13
2019-04-16T09:32:38.379Z,14.83
2019-04-16T09:35:10.787Z,15.13
2019-04-16T09:37:51.796Z,13.55
2019-04-16T09:40:37.906Z,15.88
2019-04-16T09:43:17.534Z,15.90
2019-04-16T09:45:40.756Z,13.60
2019-04-16T09:48:24.659Z,14.78
2019-04-16T09:50:52.864Z,15.03
2019-04-16T09:53:32.630Z,14.87
2019-04-16T09:55:51.277Z,15.45
2019-04-16T09:58:22.498Z,15.48
2019-04-16T10:00:52.503Z,15.08
2019-04-16T10:03:37.321Z,16.17
2019-04-16T10:06:05.978Z,17.27
2019-04-16T10:08:34.237Z,14.18
2019-04-16T10:11:05.776Z,13.13
2019-04-16T10:13:35.884Z,15.80
2019-04-16T10:16:02.360Z,16.15
2019-04-16T10:18:34.438Z,15.93
2019-04-16T10:21:00.565Z,16.55
2019-04-16T10:23:46.809Z,16.35
2019-04-16T10:26:15.212Z,17.37
2019-04-16T10:28:44.266Z,18.45
2019-04-16T10:31:14.196Z,17.12
2019-04-16T10:33:42.414Z,17.48
2019-04-16T10:36:10.725Z,16.52
2019-04-16T10:38:43.559Z,17.00
2019-04-16T10:41:25.350Z,16.97
2019-04-16T10:43:57.900Z,16.32
2019-04-16T10:46:36.840Z,16.65
2019-04-16T10:49:09.671Z,19.37
2019-04-16T10:51:39.519Z,18.67
2019-04-16T10:54:18.550Z,16.80
2019-04-16T10:57:04.812Z,18.67
2019-04-16T10:59:40.612Z,19.17
2019-04-16T11:02:22.438Z,18.45
2019-04-16T11:04:58.286Z,18.55
2019-04-16T11:07:30.762Z,19.55
2019-04-16T11:10:00.437Z,17.37
2019-04-16T11:12:28.643Z,17.70
2019-04-16T11:14:56.869Z,19.85
2019-04-16T11:17:26.762Z,16.97
2019-04-16T11:19:55.000Z,18.55
2019-04-16T11:22:23.297Z,18.12
2019-04-16T11:24:51.546Z,18.17
2019-04-16T11:27:19.733Z,18.25
2019-04-16T11:29:47.985Z,19.20
2019-04-16T11:32:17.818Z,18.45
2019-04-16T11:34:46.110Z,20.17
2019-04-16T11:37:14.328Z,20.30
2019-04-16T11:39:42.558Z,18.80
2019-04-16T11:42:10.782Z,17.60
2019-04-16T11:44:39.034Z,19.65
2019-04-16T11:47:07.281Z,18.70
2019-04-16T11:49:35.456Z,19.40
2019-04-16T11:52:03.773Z,19.55
2019-04-16T11:54:32.035Z,20.25
2019-04-16T11:57:00.363Z,20.72
2019-04-16T11:59:28.539Z,18.65
2019-04-16T12:02:01.175Z,18.32
2019-04-16T12:04:30.996Z,19.55
2019-04-16T12:07:05.991Z,16.25
2019-04-16T12:09:51.639Z,17.57
2019-04-16T12:12:24.475Z,15.65
2019-04-16T12:15:00.231Z,16.50
2019-04-16T12:17:36.148Z,17.48
2019-04-16T12:20:06.707Z,18.25
2019-04-16T12:22:36.592Z,15.50
2019-04-16T12:25:13.439Z,16.90
2019-04-16T12:28:06.439Z,14.90
2019-04-16T12:30:43.458Z,15.10
2019-04-16T12:33:29.505Z,14.68
2019-04-16T12:36:13.029Z,14.83
2019-04-16T12:38:39.914Z,14.63
2019-04-16T12:41:26.002Z,15.13
2019-04-16T12:43:55.853Z,15.65
2019-04-16T12:46:25.774Z,12.98
2019-04-16T12:48:55.630Z,13.25
2019-04-16T12:51:43.906Z,11.15
2019-04-16T12:54:29.893Z,10.70
2019-04-16T12:57:16.612Z,9.30
2019-04-16T13:00:01.696Z,9.30
2019-04-16T13:02:32.633Z,10.15
2019-04-16T13:05:02.535Z,11.18
2019-04-16T13:07:38.774Z,12.35
2019-04-16T13:13:01.656Z,10.98
2019-04-16T13:15:34.514Z,10.78
2019-04-16T13:18:06.759Z,9.83
2019-04-16T13:20:39.091Z,11.70
2019-04-16T13:23:11.366Z,11.88
2019-04-16T13:25:43.978Z,11.05
2019-04-16T13:28:12.200Z,8.48
2019-04-16T13:30:40.446Z,12.80
2019-04-16T13:33:08.668Z,11.93
2019-04-16T13:35:36.907Z,10.13
2019-04-16T13:38:08.207Z,9.85
2019-04-16T13:40:35.096Z,9.78
2019-04-16T13:43:05.605Z,12.03
2019-04-16T13:45:34.943Z,10.50
2019-04-16T13:48:15.426Z,8.88
2019-04-16T13:50:40.748Z,9.90
2019-04-16T13:53:09.493Z,10.13
2019-04-16T13:55:55.221Z,8.75
2019-04-16T13:58:30.444Z,10.03
2019-04-16T14:01:10.146Z,8.60
2019-04-16T14:03:36.961Z,10.80
2019-04-16T14:06:09.563Z,9.68
2019-04-16T14:08:35.113Z,10.60
2019-04-16T14:11:04.577Z,7.72
2019-04-16T14:13:32.834Z,9.20
2019-04-16T14:16:01.061Z,9.40
2019-04-16T14:18:29.557Z,8.35
2019-04-16T14:20:59.602Z,8.33
2019-04-16T14:23:27.862Z,7.70
2019-04-16T14:25:56.076Z,7.60
2019-04-16T14:28:24.328Z,7.67
2019-04-16T14:30:52.615Z,7.35
2019-04-16T14:33:25.140Z,7.17
2019-04-16T14:35:53.409Z,6.83
2019-04-16T14:38:38.569Z,7.42
2019-04-16T14:41:07.831Z,8.23
2019-04-16T14:43:37.694Z,7.67
2019-04-16T14:46:08.747Z,6.35
2019-04-16T14:48:42.519Z,5.83
2019-04-16T14:51:08.573Z,5.53
2019-04-16T14:53:51.412Z,5.50
2019-04-16T14:56:24.140Z,5.40
2019-04-16T14:59:03.070Z,5.33
2019-04-16T15:01:32.947Z,6.80
2019-04-16T15:04:05.787Z,7.22
2019-04-16T15:06:44.471Z,7.42
2019-04-16T15:09:24.180Z,7.83
2019-04-16T15:12:09.990Z,7.37
2019-04-16T15:14:56.493Z,7.85
2019-04-16T15:17:35.378Z,8.08
2019-04-16T15:20:23.758Z,6.80
2019-04-16T15:22:53.609Z,7.75
2019-04-16T15:25:39.518Z,7.55
2019-04-16T15:28:18.108Z,6.60
2019-04-16T15:30:47.972Z,7.40
2019-04-16T15:33:29.807Z,7.05
2019-04-16T15:36:11.501Z,7.03
2019-04-16T15:38:44.128Z,7.00
2019-04-16T15:41:17.584Z,7.28
2019-04-16T15:44:03.806Z,7.30
2019-04-16T15:46:48.958Z,7.12
2019-04-16T15:49:23.140Z,7.15
2019-04-16T15:52:09.168Z,7.80
2019-04-16T15:54:39.636Z,6.55
2019-04-16T15:57:18.396Z,7.53
2019-04-16T16:00:06.321Z,7.30
2019-04-16T16:02:52.418Z,6.62
2019-04-16T16:05:22.303Z,6.75
2019-04-16T16:07:56.010Z,6.42
2019-04-16T16:10:27.778Z,6.83
2019-04-16T16:12:55.974Z,5.53
2019-04-16T16:15:24.193Z,6.45
2019-04-16T16:17:54.310Z,6.62
2019-04-16T16:20:25.249Z,6.00
2019-04-16T16:22:54.569Z,5.87
2019-04-16T16:25:26.427Z,7.08
2019-04-16T16:27:54.642Z,5.95
2019-04-16T16:30:22.874Z,6.10
2019-04-16T16:32:51.075Z,5.33
2019-04-16T16:35:19.284Z,5.30
2019-04-16T16:37:47.504Z,5.28
2019-04-16T16:40:16.141Z,4.70
2019-04-16T16:42:44.515Z,4.87
2019-04-16T16:45:12.742Z,4.80
2019-04-16T16:47:41.028Z,5.85
2019-04-16T16:50:11.555Z,6.35
2019-04-16T16:52:44.095Z,6.22
2019-04-16T16:55:13.972Z,6.70
2019-04-16T16:57:43.824Z,6.28
2019-04-16T17:00:23.893Z,6.72
2019-04-16T17:02:56.875Z,5.83
2019-04-16T17:05:26.654Z,7.22
2019-04-16T17:07:55.225Z,5.92
2019-04-16T17:10:26.130Z,6.20
2019-04-16T17:12:54.384Z,6.28
2019-04-16T17:15:22.570Z,6.50
2019-04-16T17:17:50.852Z,6.37
2019-04-16T17:20:19.045Z,6.47
2019-04-16T17:22:49.962Z,4.95
2019-04-16T17:25:18.193Z,4.00
2019-04-16T17:27:51.474Z,4.47
2019-04-16T17:30:20.143Z,3.45
2019-04-16T17:32:51.036Z,2.85
2019-04-16T17:35:19.233Z,2.60
2019-04-16T17:37:47.453Z,2.55
2019-04-16T17:40:21.404Z,2.30
2019-04-16T17:42:51.278Z,2.22
2019-04-16T17:45:37.215Z,2.08
2019-04-16T17:48:10.090Z,1.70
2019-04-16T17:50:43.609Z,1.80
2019-04-16T17:53:25.533Z,1.42
2019-04-16T17:56:11.787Z,1.50
2019-04-16T17:59:00.157Z,1.40
2019-04-16T18:01:35.964Z,1.25
2019-04-16T18:04:21.836Z,1.22
2019-04-16T18:06:51.689Z,1.17
2019-04-16T18:09:24.412Z,0.93
2019-04-16T18:11:56.658Z,1.22
2019-04-16T18:14:44.253Z,0.93
2019-04-16T18:17:19.779Z,1.40
2019-04-16T18:20:06.305Z,1.20
2019-04-16T18:22:41.911Z,1.12
2019-04-16T18:28:04.014Z,1.20
2019-04-16T18:30:50.385Z,1.30
2019-04-16T18:33:22.920Z,1.20
2019-04-16T18:35:52.796Z,1.40
2019-04-16T18:38:38.934Z,1.47
2019-04-16T18:41:08.798Z,1.12
2019-04-16T18:44:01.117Z,1.25
2019-04-16T18:46:36.999Z,1.10
2019-04-16T18:49:06.840Z,1.10
2019-04-16T18:51:35.053Z,1.15
2019-04-16T18:54:06.284Z,1.27
2019-04-16T18:56:34.490Z,1.10
2019-04-16T18:59:02.763Z,1.35
2019-04-16T19:01:33.500Z,1.27
2019-04-16T19:04:01.735Z,1.20
2019-04-16T19:06:29.978Z,1.17
2019-04-16T19:08:58.458Z,1.40
2019-04-16T19:11:26.784Z,1.87
2019-04-16T19:13:55.226Z,1.40
2019-04-16T19:16:23.441Z,1.75
2019-04-16T19:18:51.654Z,1.57
2019-04-16T19:21:19.851Z,2.00
2019-04-16T19:23:48.102Z,1.50
2019-04-16T19:26:16.327Z,2.00
2019-04-16T19:28:45.579Z,2.00
2019-04-16T19:31:13.839Z,2.12
2019-04-16T19:33:42.034Z,2.10
2019-04-16T19:36:10.320Z,2.37
2019-04-16T19:38:39.385Z,2.33
2019-04-16T19:41:08.451Z,1.80
2019-04-16T19:43:38.323Z,2.00
2019-04-16T19:46:06.584Z,1.67
2019-04-16T19:48:36.263Z,1.45
2019-04-16T19:51:08.502Z,2.10
2019-04-16T19:53:38.878Z,2.00
2019-04-16T19:56:07.065Z,2.20
2019-04-16T19:58:35.293Z,1.90
2019-04-16T20:01:03.959Z,1.67
2019-04-16T20:03:32.167Z,1.57
2019-04-16T20:06:00.369Z,1.80
2019-04-16T20:08:34.484Z,2.10
2019-04-16T20:10:58.612Z,2.00
2019-04-16T20:13:28.940Z,1.60
2019-04-16T20:15:59.799Z,1.82
2019-04-16T20:18:29.200Z,1.62
2019-04-16T20:21:00.538Z,2.08
2019-04-16T20:23:32.407Z,1.87
2019-04-16T20:26:01.086Z,2.22
2019-04-16T20:28:29.815Z,2.67
2019-04-16T20:31:03.265Z,3.10
2019-04-16T20:33:27.970Z,2.12
2019-04-16T20:35:56.967Z,2.80
2019-04-16T20:38:29.013Z,2.67
2019-04-16T20:40:55.425Z,2.58
2019-04-16T20:43:23.724Z,2.45
2019-04-16T20:45:54.656Z,3.20
2019-04-16T20:48:22.863Z,2.42
2019-04-16T20:50:53.005Z,2.27
2019-04-16T20:53:21.016Z,2.87
2019-04-16T20:55:49.234Z,1.98
2019-04-16T20:58:17.442Z,2.60
2019-04-16T21:00:47.301Z,3.00
2019-04-16T21:03:22.237Z,2.22
2019-04-16T21:05:57.351Z,2.50
2019-04-16T21:08:17.112Z,2.37
2019-04-16T21:10:45.349Z,2.77
2019-04-16T21:13:16.235Z,2.60
2019-04-16T21:15:43.492Z,2.22
2019-04-16T21:18:12.343Z,2.20
2019-04-16T21:20:40.520Z,2.40
2019-04-16T21:23:08.727Z,2.40
2019-04-16T21:25:36.935Z,2.75
2019-04-16T21:28:09.506Z,2.35
2019-04-16T21:30:42.859Z,2.75
2019-04-16T21:33:17.655Z,2.50
2019-04-16T21:35:54.884Z,3.15
2019-04-16T21:38:24.729Z,2.85
2019-04-16T21:40:56.364Z,2.83
2019-04-16T21:43:22.873Z,2.77
2019-04-16T21:45:51.135Z,3.27
2019-04-16T21:48:19.334Z,2.95
2019-04-16T21:50:48.238Z,3.05
2019-04-16T21:53:16.655Z,3.15
2019-04-16T21:55:44.884Z,3.00
2019-04-16T21:58:14.545Z,2.92
2019-04-16T22:00:50.757Z,3.60
2019-04-16T22:03:23.268Z,3.90
2019-04-16T22:05:53.298Z,3.77
2019-04-16T22:08:21.607Z,3.77
2019-04-16T22:10:49.834Z,3.87
2019-04-16T22:13:19.486Z,3.98
2019-04-16T22:15:47.971Z,3.60
2019-04-16T22:18:16.175Z,3.42
2019-04-16T22:20:44.388Z,3.70
2019-04-16T22:23:12.605Z,3.15
2019-04-16T22:25:41.712Z,3.30
2019-04-16T22:28:12.798Z,3.62
2019-04-16T22:30:39.859Z,3.85
2019-04-16T22:33:08.053Z,4.08
2019-04-16T22:35:36.290Z,3.05
2019-04-16T22:38:04.494Z,2.80
2019-04-16T22:40:51.690Z,4.50
2019-04-16T22:43:39.702Z,3.15
2019-04-16T22:46:11.733Z,3.40
2019-04-16T22:48:41.580Z,3.27
2019-04-16T22:51:11.593Z,4.22
2019-04-16T22:53:41.383Z,3.42
2019-04-16T22:56:09.597Z,4.30
2019-04-16T22:58:47.238Z,5.12
2019-04-16T23:01:15.997Z,5.20
2019-04-16T23:03:45.235Z,5.03
2019-04-16T23:06:13.458Z,5.65
2019-04-16T23:08:43.569Z,4.92
2019-04-16T23:11:11.605Z,4.67
2019-04-16T23:13:39.848Z,4.75
2019-04-16T23:16:08.072Z,4.92
2019-04-16T23:18:36.281Z,4.05
2019-04-16T23:21:08.605Z,3.80
2019-04-16T23:23:34.423Z,4.35
2019-04-16T23:26:02.635Z,4.22
2019-04-16T23:28:30.857Z,4.20
2019-04-16T23:30:59.238Z,4.37
2019-04-16T23:33:32.550Z,4.20
2019-04-16T23:35:57.406Z,5.03
2019-04-16T23:38:25.743Z,4.58
2019-04-16T23:40:55.567Z,5.12
2019-04-16T23:43:25.448Z,4.53
2019-04-16T23:45:55.295Z,5.53
2019-04-16T23:48:28.103Z,4.97
2019-04-16T23:50:59.204Z,4.72
2019-04-16T23:53:38.162Z,4.58
2019-04-16T23:56:21.903Z,4.65
2019-04-16T23:58:54.511Z,4.08
